Kezdőlap
METAR-TAF:

METAR-TAF

Repülőterek :

Kolozsvári nemzetközi repülőtér

Kolozsvár, Románia

földrajzi szélesség: 46-47N, földrajzi hosszúság: 023-34E, magasság: 315 m

Jelenlegi meteorológiai megfigyelések

A jelentés 38 perccel ezelõtt készült, 17:00 UTC
Észak-északkeleti szél 3 kt, északi és kelet-északkeleti között változik
Hőmérséklet -5°C
Páratartalom 86%
Légköri nyomás 1023 hPa
Látótávolság: 1500 m
Borult 200 lábon
Párásság

METAR: LRCL 061700Z 02003KT 360V060 1500 R25/0650N BR OVC002 M05/M07 Q1023 R07/19//95

Idő: 19:38 (17:38 UTC)

Előrejelzés

A jelentés 3 órával és 38 perccel ezelõtt készült, 14:00 UTC
Az előrejelzés 06-én 15 óra UTC és 06-én 24 óra UTC között érvényes
Különbözõ irányokból fújó szél 4 kt
Látótávolság: 0600 m
Borult 100 lábon
zúzmarás köd
06-én 15 óra UTC és 06-én 17 óra UTC között fokozatosan kialakuló
Látótávolság: 0250 m
zúzmarás köd

TAF: LRCL 061400Z 0615/0624 VRB04KT 0600 FZFG OVC001 BECMG 0615/0617 0250 FZFG

Meteorológiai megfigyelések és előrejelzések több, mint 4000 repülőtéren (METAR és TAF jelentéseket).

A térképen piros és sárga pontok jelzik az elérhető meteorológiai állomásokat.

Mozgassa az egeret a pont fölött, hogy megjelenjen az állomás neve.

Azután kattintson az időjárási megfigyelések és előrejelzések megtekintéséhez.

A térkép megváltoztatása: kattintson a fekete keresztel jelölt zöld gombra ráközelítéshez, a vonallal jelölt zöld gombra távolításhoz, vagy a zöld nyilakra a szomszédos térképek eléréséhez.


METAR-TAF: